createdAt,value
2022-10-02T00:04:27.769Z,85.02
2022-10-02T00:09:34.345Z,85.44
2022-10-02T00:14:40.211Z,85.40
2022-10-02T00:19:41.778Z,85.61
2022-10-02T00:24:46.378Z,85.70
2022-10-02T00:29:49.964Z,85.66
2022-10-02T00:35:03.700Z,85.58
2022-10-02T00:40:40.642Z,85.56
2022-10-02T00:46:13.218Z,85.69
2022-10-02T00:51:31.668Z,85.66
2022-10-02T00:56:45.313Z,85.71
2022-10-02T01:01:54.435Z,85.52
2022-10-02T01:06:56.527Z,85.37
2022-10-02T01:11:58.415Z,85.39
2022-10-02T01:17:01.326Z,85.44
2022-10-02T01:22:38.866Z,85.20
2022-10-02T01:27:40.538Z,85.28
2022-10-02T01:32:52.509Z,85.02
2022-10-02T01:37:55.849Z,84.88
2022-10-02T01:43:11.171Z,84.64
2022-10-02T01:48:37.114Z,84.67
2022-10-02T01:53:47.401Z,84.77
2022-10-02T01:59:29.885Z,84.67
2022-10-02T02:05:00.041Z,84.71
2022-10-02T02:10:16.841Z,84.82
2022-10-02T02:16:03.714Z,84.83
2022-10-02T02:21:21.950Z,84.90
2022-10-02T02:26:25.370Z,85.11
2022-10-02T02:31:38.065Z,85.36
2022-10-02T02:36:44.833Z,85.10
2022-10-02T02:42:00.837Z,85.14
2022-10-02T02:47:12.768Z,85.20
2022-10-02T02:52:20.834Z,85.46
2022-10-02T02:57:32.595Z,85.02
2022-10-02T03:02:34.523Z,85.10
2022-10-02T03:07:36.169Z,85.30
2022-10-02T03:12:59.461Z,85.39
2022-10-02T03:18:20.231Z,84.93
2022-10-02T03:23:36.086Z,84.75
2022-10-02T03:28:55.542Z,85.02
2022-10-02T03:34:00.944Z,84.88
2022-10-02T03:39:24.100Z,85.21
2022-10-02T03:44:26.898Z,85.34
2022-10-02T03:49:28.893Z,85.21
2022-10-02T03:54:35.965Z,84.98
2022-10-02T03:59:55.578Z,85.47
2022-10-02T04:05:17.757Z,85.43
2022-10-02T04:10:24.905Z,85.37
2022-10-02T04:15:39.461Z,85.22
2022-10-02T04:20:49.353Z,85.37
2022-10-02T04:25:57.895Z,85.17
2022-10-02T04:31:01.442Z,85.50
2022-10-02T04:36:40.549Z,85.67
2022-10-02T04:41:59.497Z,85.86
2022-10-02T04:47:13.012Z,86.27
2022-10-02T04:52:37.709Z,86.69
2022-10-02T04:57:51.742Z,86.66
2022-10-02T05:03:17.318Z,87.38
2022-10-02T05:08:43.687Z,87.44
2022-10-02T05:14:33.592Z,87.82
2022-10-02T05:19:57.499Z,87.81
2022-10-02T05:25:21.406Z,87.57
2022-10-02T05:30:23.162Z,87.46
2022-10-02T05:35:31.945Z,87.13
2022-10-02T05:40:42.577Z,87.55
2022-10-02T05:45:52.939Z,87.35
2022-10-02T05:51:08.918Z,87.70
2022-10-02T05:56:18.605Z,87.06
2022-10-02T06:01:27.801Z,87.33
2022-10-02T06:06:46.041Z,87.70
2022-10-02T06:11:59.752Z,87.93
2022-10-02T06:17:04.105Z,88.38
2022-10-02T06:22:19.857Z,88.09
2022-10-02T06:27:38.589Z,88.04
2022-10-02T06:33:09.528Z,87.29
2022-10-02T06:38:45.508Z,85.28
2022-10-02T06:44:02.746Z,86.09
2022-10-02T06:49:36.707Z,85.31
2022-10-02T06:55:12.279Z,83.97
2022-10-02T07:00:18.520Z,83.64
2022-10-02T07:06:01.756Z,82.10
2022-10-02T07:11:18.317Z,81.89
2022-10-02T07:16:25.569Z,80.55
2022-10-02T07:21:33.076Z,80.67
2022-10-02T07:26:54.154Z,79.12
2022-10-02T07:32:21.913Z,80.21
2022-10-02T07:37:51.325Z,80.01
2022-10-02T07:43:02.296Z,80.07
2022-10-02T07:48:23.954Z,80.23
2022-10-02T07:53:32.152Z,80.55
2022-10-02T07:58:54.799Z,79.71
2022-10-02T08:04:03.880Z,80.27
2022-10-02T08:09:22.792Z,80.47
2022-10-02T08:14:40.481Z,80.33
2022-10-02T08:19:51.366Z,80.92
2022-10-02T08:25:03.218Z,81.36
2022-10-02T08:30:08.589Z,81.70
2022-10-02T08:35:19.562Z,81.83
2022-10-02T08:40:30.458Z,81.65
2022-10-02T08:45:47.798Z,81.81
2022-10-02T08:51:26.930Z,81.54
2022-10-02T08:56:50.065Z,81.96
2022-10-02T09:02:17.101Z,81.72
2022-10-02T09:07:40.760Z,81.48
2022-10-02T09:13:22.730Z,80.90
2022-10-02T09:18:36.376Z,81.47
2022-10-02T09:24:00.001Z,81.27
2022-10-02T09:29:28.232Z,81.56
2022-10-02T09:35:02.196Z,81.01
2022-10-02T09:40:18.220Z,80.14
2022-10-02T09:45:25.757Z,79.93
2022-10-02T09:50:56.429Z,78.32
2022-10-02T09:56:20.500Z,79.26
2022-10-02T10:01:34.999Z,78.70
2022-10-02T10:06:54.443Z,77.98
2022-10-02T10:11:59.253Z,78.12
2022-10-02T10:17:19.584Z,77.89
2022-10-02T10:22:49.666Z,77.58
2022-10-02T10:28:06.037Z,78.52
2022-10-02T10:33:08.530Z,78.08
2022-10-02T10:38:35.212Z,76.94
2022-10-02T10:43:58.470Z,76.42
2022-10-02T10:49:18.530Z,77.10
2022-10-02T10:54:44.799Z,77.09
2022-10-02T11:00:11.570Z,76.78
2022-10-02T11:05:51.536Z,76.47
2022-10-02T11:10:53.013Z,77.73
2022-10-02T11:16:07.956Z,76.96
2022-10-02T11:21:12.600Z,77.02
2022-10-02T11:26:58.640Z,76.89
2022-10-02T11:32:35.307Z,75.87
2022-10-02T11:37:54.963Z,76.31
2022-10-02T11:43:46.644Z,77.46
2022-10-02T11:48:48.218Z,77.52
2022-10-02T11:54:20.545Z,77.36
2022-10-02T12:00:04.299Z,77.57
2022-10-02T12:05:40.941Z,77.39
2022-10-02T12:11:05.007Z,77.78
2022-10-02T12:16:48.699Z,77.53
2022-10-02T12:22:36.653Z,77.33
2022-10-02T12:28:06.024Z,77.73
2022-10-02T12:33:33.193Z,78.19
2022-10-02T12:38:42.665Z,77.91
2022-10-02T12:44:14.002Z,77.52
2022-10-02T12:49:34.404Z,77.10
2022-10-02T12:54:53.119Z,78.43
2022-10-02T13:00:37.673Z,79.01
2022-10-02T13:06:04.688Z,79.16
2022-10-02T13:11:24.600Z,80.04
2022-10-02T13:17:17.020Z,80.87
2022-10-02T13:22:31.952Z,81.04
2022-10-02T13:28:13.672Z,82.20
2022-10-02T13:33:47.500Z,83.14
2022-10-02T13:39:08.062Z,83.80
2022-10-02T13:44:48.792Z,84.87
2022-10-02T13:50:06.733Z,85.69
2022-10-02T13:55:26.153Z,85.72
2022-10-02T14:00:37.244Z,86.36
2022-10-02T14:05:43.988Z,86.64
2022-10-02T14:10:45.570Z,86.77
2022-10-02T14:16:25.509Z,87.40
2022-10-02T14:21:31.086Z,88.51
2022-10-02T14:26:38.477Z,87.36
2022-10-02T14:32:02.607Z,87.67
2022-10-02T14:37:32.245Z,88.29
2022-10-02T14:42:55.192Z,88.65
2022-10-02T14:48:30.653Z,88.30
2022-10-02T14:53:44.085Z,88.50
2022-10-02T14:59:10.476Z,88.93
2022-10-02T15:04:30.131Z,88.85
2022-10-02T15:09:50.754Z,88.71
2022-10-02T15:15:10.581Z,88.46
2022-10-02T15:20:20.303Z,88.90
2022-10-02T15:25:52.904Z,88.89
2022-10-02T15:31:24.403Z,88.87
2022-10-02T15:36:55.537Z,88.60
2022-10-02T15:42:03.032Z,89.07
2022-10-02T15:47:17.540Z,88.88
2022-10-02T15:52:40.963Z,89.35
2022-10-02T15:57:48.802Z,89.37
2022-10-02T16:03:09.041Z,89.14
2022-10-02T16:08:35.045Z,89.43
2022-10-02T16:13:47.194Z,89.30
2022-10-02T16:19:11.952Z,89.73
2022-10-02T16:24:38.738Z,89.20
2022-10-02T16:29:52.507Z,89.55
2022-10-02T16:34:57.027Z,89.88
2022-10-02T16:40:03.274Z,90.25
2022-10-02T16:45:10.943Z,90.53
2022-10-02T16:50:29.403Z,91.30
2022-10-02T16:55:40.532Z,91.07
2022-10-02T17:00:57.086Z,91.14
2022-10-02T17:06:27.316Z,91.41
2022-10-02T17:11:31.600Z,91.41
2022-10-02T17:16:55.747Z,91.74
2022-10-02T17:22:09.903Z,91.24
2022-10-02T17:27:26.650Z,91.37
2022-10-02T17:32:40.212Z,91.68
2022-10-02T17:38:00.556Z,91.46
2022-10-02T17:43:11.313Z,91.65
2022-10-02T17:48:28.201Z,91.73
2022-10-02T17:53:59.844Z,91.52
2022-10-02T17:59:26.117Z,91.97
2022-10-02T18:04:56.922Z,92.00
2022-10-02T18:10:16.528Z,91.68
2022-10-02T18:15:27.127Z,92.19
2022-10-02T18:20:48.140Z,92.03
2022-10-02T18:26:01.981Z,91.81
2022-10-02T18:31:28.838Z,91.97
2022-10-02T18:36:40.740Z,92.10
2022-10-02T18:42:17.402Z,92.21
2022-10-02T18:47:47.194Z,92.11
2022-10-02T18:52:57.939Z,92.40
2022-10-02T18:58:21.642Z,92.34
2022-10-02T19:04:03.957Z,92.51
2022-10-02T19:09:08.757Z,91.71
2022-10-02T19:14:21.119Z,91.84
2022-10-02T19:19:24.425Z,91.65
2022-10-02T19:24:31.645Z,91.65
2022-10-02T19:29:48.592Z,91.72
2022-10-02T19:35:07.344Z,91.41
2022-10-02T19:40:21.799Z,91.26
2022-10-02T19:45:30.469Z,91.20
2022-10-02T19:50:43.159Z,91.08
2022-10-02T19:55:49.676Z,91.09
2022-10-02T20:00:53.021Z,90.67
2022-10-02T20:06:00.929Z,90.60
2022-10-02T20:11:10.477Z,90.55
2022-10-02T20:16:39.132Z,90.58
2022-10-02T20:22:11.234Z,90.47
2022-10-02T20:27:22.613Z,90.80
2022-10-02T20:32:33.945Z,90.38
2022-10-02T20:37:37.072Z,90.34
2022-10-02T20:42:58.475Z,90.28
2022-10-02T20:49:06.326Z,90.39
2022-10-02T20:54:12.416Z,90.03
2022-10-02T20:59:45.172Z,90.35
2022-10-02T21:05:19.452Z,90.22
2022-10-02T21:10:42.658Z,90.52
2022-10-02T21:16:07.700Z,90.19
2022-10-02T21:21:55.876Z,90.14
2022-10-02T21:27:27.063Z,90.39
2022-10-02T21:32:49.969Z,90.31
2022-10-02T21:38:33.285Z,90.89
2022-10-02T21:43:53.658Z,90.63
2022-10-02T21:49:16.780Z,90.76
2022-10-02T21:54:49.102Z,90.61
2022-10-02T22:00:21.854Z,90.75
2022-10-02T22:05:48.578Z,90.48
2022-10-02T22:11:05.576Z,90.57
2022-10-02T22:16:25.068Z,90.32
2022-10-02T22:21:32.471Z,90.28
2022-10-02T22:26:56.183Z,89.89
2022-10-02T22:32:17.683Z,89.86
2022-10-02T22:37:40.029Z,89.37
2022-10-02T22:42:49.937Z,89.58
2022-10-02T22:48:07.192Z,89.54
2022-10-02T22:53:31.816Z,89.64
2022-10-02T22:58:46.589Z,89.41
2022-10-02T23:03:56.301Z,89.54
2022-10-02T23:09:18.149Z,89.27
2022-10-02T23:14:44.164Z,89.14
2022-10-02T23:19:54.016Z,88.92
2022-10-02T23:25:21.917Z,88.67
2022-10-02T23:30:23.899Z,88.72
2022-10-02T23:36:05.158Z,88.76
2022-10-02T23:41:34.550Z,89.03
2022-10-02T23:47:02.884Z,89.03
2022-10-02T23:52:31.203Z,89.08
2022-10-02T23:57:54.218Z,89.29
